KLM643 EHAM-KJFK
Flight info
| Callsign | KLM643 |
|---|---|
| Flight time | N/A |
| Altitude | 38000 |
| Route | BERGI L60 PENIL M144 BAGSO DCT DEVOL DCT DOGAL/M085F390 DCT 54N020W 53N030W 5130N04000W 50N050W DCT ELSIR/N0485F400 N402C ALLEX DCT ENE PARCH4 |
| Aircraft | B789/H-SDE1E2E3FGHIJ2J3J4J5M1RWXY/LB1D1 |
Departure
| Time | 2026-05-07 16:20 |
|---|---|
| Airport | Amsterdam Airport Schiphol (EHAM) |
Arrival
| Time | N/A |
|---|---|
| Airport | John F. Kennedy International Airport (KJFK) |
| Time | Latitude | Longitude | Altitude | Speed | Heading |
|---|---|---|---|---|---|
| 2026-05-07 16:14 | 52.31499 | 4.74987 | 4 ft | 2 kts | 267° |
| 2026-05-07 16:14 | 52.31498 | 4.74939 | 4 ft | 6 kts | 264° |
| 2026-05-07 16:15 | 52.31492 | 4.74837 | 4 ft | 11 kts | 264° |
| 2026-05-07 16:15 | 52.31486 | 4.74681 | 4 ft | 16 kts | 267° |
| 2026-05-07 16:15 | 52.31480 | 4.74475 | 4 ft | 20 kts | 267° |
| 2026-05-07 16:15 | 52.31467 | 4.74243 | 4 ft | 20 kts | 252° |
| 2026-05-07 16:16 | 52.31367 | 4.74136 | 4 ft | 18 kts | 184° |
| 2026-05-07 16:16 | 52.31220 | 4.74123 | 4 ft | 24 kts | 183° |
| 2026-05-07 16:16 | 52.31043 | 4.74107 | 4 ft | 28 kts | 183° |
| 2026-05-07 16:16 | 52.30832 | 4.74090 | 4 ft | 32 kts | 184° |
| 2026-05-07 16:17 | 52.30608 | 4.74067 | 4 ft | 31 kts | 183° |
| 2026-05-07 16:17 | 52.30414 | 4.74050 | 4 ft | 22 kts | 183° |
| 2026-05-07 16:17 | 52.30278 | 4.73975 | 4 ft | 21 kts | 206° |
| 2026-05-07 16:17 | 52.30189 | 4.73838 | 4 ft | 15 kts | 260° |
| 2026-05-07 16:18 | 52.30206 | 4.73743 | 4 ft | 2 kts | 337° |
| 2026-05-07 16:18 | 52.30217 | 4.73742 | 3 ft | 0 kts | 0° |
| 2026-05-07 16:18 | 52.30219 | 4.73742 | 3 ft | 2 kts | 0° |
| 2026-05-07 16:19 | 52.30339 | 4.73748 | 1 ft | 42 kts | 2° |
| 2026-05-07 16:19 | 52.30860 | 4.73799 | 4 ft | 105 kts | 3° |
| 2026-05-07 16:19 | 52.31773 | 4.73884 | 4 ft | 156 kts | 4° |
| 2026-05-07 16:19 | 52.32949 | 4.73973 | 296 ft | 176 kts | 2° |
| 2026-05-07 16:20 | 52.34182 | 4.74146 | 732 ft | 184 kts | 12° |
| 2026-05-07 16:20 | 52.35319 | 4.75105 | 1300 ft | 184 kts | 30° |
| 2026-05-07 16:20 | 52.36472 | 4.76013 | 1809 ft | 188 kts | 25° |
| 2026-05-07 16:20 | 52.37762 | 4.76861 | 2115 ft | 206 kts | 22° |
| 2026-05-07 16:21 | 52.39129 | 4.77743 | 2456 ft | 222 kts | 22° |
| 2026-05-07 16:21 | 52.40619 | 4.78693 | 2826 ft | 239 kts | 22° |
| 2026-05-07 16:21 | 52.42222 | 4.79685 | 3363 ft | 251 kts | 18° |
| 2026-05-07 16:21 | 52.43978 | 4.79747 | 4013 ft | 257 kts | 346° |
| 2026-05-07 16:22 | 52.45551 | 4.78313 | 4789 ft | 260 kts | 316° |
| 2026-05-07 16:22 | 52.46704 | 4.76026 | 5525 ft | 262 kts | 306° |
| 2026-05-07 16:22 | 52.47855 | 4.73661 | 6186 ft | 269 kts | 310° |
| 2026-05-07 16:22 | 52.49224 | 4.71558 | 6845 ft | 276 kts | 319° |
| 2026-05-07 16:23 | 52.50768 | 4.69595 | 7570 ft | 278 kts | 321° |
| 2026-05-07 16:23 | 52.52272 | 4.67601 | 8323 ft | 279 kts | 319° |
| 2026-05-07 16:23 | 52.53748 | 4.65508 | 9039 ft | 282 kts | 317° |
| 2026-05-07 16:23 | 52.55215 | 4.63427 | 9745 ft | 284 kts | 319° |
| 2026-05-07 16:24 | 52.56737 | 4.61314 | 10362 ft | 290 kts | 319° |
| 2026-05-07 16:24 | 52.58325 | 4.59113 | 10678 ft | 306 kts | 319° |
| 2026-05-07 16:24 | 52.59990 | 4.56788 | 10995 ft | 321 kts | 318° |
| 2026-05-07 16:24 | 52.61729 | 4.54351 | 11321 ft | 336 kts | 319° |
| 2026-05-07 16:25 | 52.63549 | 4.51805 | 11629 ft | 351 kts | 319° |
| 2026-05-07 16:25 | 52.65446 | 4.49149 | 11963 ft | 364 kts | 319° |
| 2026-05-07 16:25 | 52.67394 | 4.46420 | 12526 ft | 370 kts | 319° |
| 2026-05-07 16:25 | 52.67792 | 4.45860 | 12655 ft | 371 kts | 319° |
| 2026-05-07 16:26 | 52.69774 | 4.43076 | 13270 ft | 376 kts | 318° |
| 2026-05-07 16:26 | 52.71772 | 4.40265 | 13906 ft | 380 kts | 319° |
| 2026-05-07 16:26 | 52.73778 | 4.37396 | 14457 ft | 382 kts | 316° |
| 2026-05-07 16:26 | 52.75325 | 4.33846 | 14980 ft | 384 kts | 295° |
| 2026-05-07 16:27 | 52.76150 | 4.29654 | 15546 ft | 385 kts | 284° |
| 2026-05-07 16:27 | 52.76941 | 4.25409 | 16104 ft | 389 kts | 287° |
| 2026-05-07 16:27 | 52.77841 | 4.21174 | 16662 ft | 392 kts | 289° |
| 2026-05-07 16:27 | 52.78745 | 4.16901 | 17197 ft | 396 kts | 288° |
| 2026-05-07 16:28 | 52.79600 | 4.12570 | 17783 ft | 398 kts | 287° |
| 2026-05-07 16:28 | 52.80454 | 4.08193 | 18327 ft | 402 kts | 287° |
| 2026-05-07 16:28 | 52.81323 | 4.03851 | 18769 ft | 405 kts | 288° |
| 2026-05-07 16:28 | 52.82221 | 3.99415 | 19267 ft | 408 kts | 287° |
| 2026-05-07 16:29 | 52.83113 | 3.94951 | 19702 ft | 411 kts | 287° |
| 2026-05-07 16:29 | 52.84003 | 3.90447 | 20165 ft | 414 kts | 287° |
| 2026-05-07 16:29 | 52.84903 | 3.85908 | 20601 ft | 417 kts | 287° |
| 2026-05-07 16:29 | 52.85810 | 3.81338 | 21103 ft | 419 kts | 287° |
| 2026-05-07 16:30 | 52.86715 | 3.76748 | 21527 ft | 422 kts | 287° |
| 2026-05-07 16:30 | 52.87624 | 3.72120 | 21970 ft | 424 kts | 287° |
| 2026-05-07 16:30 | 52.88542 | 3.67459 | 22422 ft | 426 kts | 287° |
| 2026-05-07 16:30 | 52.89460 | 3.62776 | 22826 ft | 429 kts | 287° |
| 2026-05-07 16:31 | 52.90383 | 3.58051 | 23221 ft | 433 kts | 287° |
| 2026-05-07 16:31 | 52.91311 | 3.53288 | 23645 ft | 436 kts | 287° |
| 2026-05-07 16:31 | 52.92245 | 3.48490 | 23943 ft | 439 kts | 287° |
| 2026-05-07 16:31 | 52.93182 | 3.43650 | 24257 ft | 442 kts | 287° |
| 2026-05-07 16:32 | 52.94122 | 3.38784 | 24563 ft | 445 kts | 287° |
| 2026-05-07 16:32 | 52.95071 | 3.33875 | 24880 ft | 448 kts | 287° |
| 2026-05-07 16:32 | 52.96022 | 3.28936 | 25163 ft | 452 kts | 287° |
| 2026-05-07 16:32 | 52.96978 | 3.23953 | 25426 ft | 455 kts | 287° |
| 2026-05-07 16:33 | 52.97939 | 3.18939 | 25749 ft | 458 kts | 287° |
| 2026-05-07 16:33 | 52.98904 | 3.13888 | 26045 ft | 460 kts | 287° |
| 2026-05-07 16:33 | 52.99872 | 3.08814 | 26378 ft | 462 kts | 287° |
| 2026-05-07 16:33 | 53.00844 | 3.03713 | 26679 ft | 465 kts | 287° |
| 2026-05-07 16:34 | 53.01817 | 2.98565 | 26988 ft | 468 kts | 287° |
| 2026-05-07 16:34 | 53.02793 | 2.93395 | 27296 ft | 470 kts | 287° |
| 2026-05-07 16:34 | 53.03775 | 2.88198 | 27596 ft | 473 kts | 287° |
| 2026-05-07 16:34 | 53.04759 | 2.82970 | 27885 ft | 476 kts | 287° |
| 2026-05-07 16:35 | 53.05744 | 2.77709 | 28173 ft | 478 kts | 287° |
| 2026-05-07 16:35 | 53.06707 | 2.72551 | 28460 ft | 481 kts | 287° |
| 2026-05-07 16:35 | 53.07686 | 2.67297 | 28743 ft | 484 kts | 287° |
| 2026-05-07 16:35 | 53.08683 | 2.61939 | 29027 ft | 486 kts | 287° |
| 2026-05-07 16:36 | 53.09681 | 2.56554 | 29307 ft | 489 kts | 287° |
| 2026-05-07 16:36 | 53.10677 | 2.51131 | 29602 ft | 491 kts | 286° |
| 2026-05-07 16:36 | 53.11235 | 2.45535 | 29849 ft | 491 kts | 274° |
| 2026-05-07 16:36 | 53.11635 | 2.39855 | 30050 ft | 496 kts | 278° |
| 2026-05-07 16:37 | 53.12195 | 2.34183 | 30305 ft | 498 kts | 279° |
| 2026-05-07 16:37 | 53.12722 | 2.28470 | 30545 ft | 500 kts | 277° |
| 2026-05-07 16:37 | 53.13143 | 2.22716 | 30799 ft | 502 kts | 276° |
| 2026-05-07 16:37 | 53.13561 | 2.16931 | 31048 ft | 504 kts | 277° |
| 2026-05-07 16:38 | 53.14043 | 2.11136 | 31311 ft | 506 kts | 278° |
| 2026-05-07 16:38 | 53.14540 | 2.05323 | 31622 ft | 507 kts | 277° |
| 2026-05-07 16:38 | 53.14997 | 1.99511 | 31962 ft | 507 kts | 276° |
| 2026-05-07 16:38 | 53.15432 | 1.93681 | 32314 ft | 506 kts | 276° |
| 2026-05-07 16:39 | 53.15883 | 1.87865 | 32665 ft | 506 kts | 277° |
| 2026-05-07 16:39 | 53.16348 | 1.82052 | 33027 ft | 506 kts | 277° |
| 2026-05-07 16:39 | 53.16800 | 1.76247 | 33381 ft | 505 kts | 276° |
| 2026-05-07 16:39 | 53.17238 | 1.70438 | 33742 ft | 505 kts | 276° |
| 2026-05-07 16:40 | 53.17674 | 1.64646 | 34091 ft | 504 kts | 276° |
| 2026-05-07 16:40 | 53.18115 | 1.58845 | 34400 ft | 504 kts | 276° |
| 2026-05-07 16:40 | 53.18553 | 1.53062 | 34729 ft | 502 kts | 276° |
| 2026-05-07 16:40 | 53.18983 | 1.47292 | 35078 ft | 501 kts | 276° |
| 2026-05-07 16:41 | 53.19404 | 1.41542 | 35408 ft | 499 kts | 276° |
| 2026-05-07 16:41 | 53.19827 | 1.35799 | 35738 ft | 498 kts | 276° |
| 2026-05-07 16:41 | 53.20250 | 1.30077 | 36062 ft | 497 kts | 276° |
| 2026-05-07 16:41 | 53.20664 | 1.24370 | 36385 ft | 495 kts | 275° |
| 2026-05-07 16:42 | 53.21071 | 1.18677 | 36703 ft | 494 kts | 275° |
| 2026-05-07 16:42 | 53.21475 | 1.12993 | 37046 ft | 492 kts | 275° |
| 2026-05-07 16:42 | 53.21880 | 1.07338 | 37389 ft | 490 kts | 275° |
| 2026-05-07 16:42 | 53.22280 | 1.01702 | 37721 ft | 488 kts | 275° |
| 2026-05-07 16:43 | 53.22666 | 0.96151 | 37990 ft | 488 kts | 275° |
| 2026-05-07 16:43 | 53.23458 | 0.84814 | 38078 ft | 487 kts | 275° |
| 2026-05-07 16:44 | 53.24220 | 0.73737 | 38111 ft | 481 kts | 275° |
| 2026-05-07 16:44 | 53.24965 | 0.62606 | 38077 ft | 482 kts | 274° |
| 2026-05-07 16:45 | 53.25707 | 0.51468 | 38082 ft | 484 kts | 275° |
| 2026-05-07 16:45 | 53.26442 | 0.40307 | 38081 ft | 483 kts | 274° |
| 2026-05-07 16:46 | 53.27160 | 0.29149 | 38082 ft | 484 kts | 274° |
| 2026-05-07 16:46 | 53.27875 | 0.17966 | 38070 ft | 484 kts | 274° |
| 2026-05-07 16:47 | 53.28574 | 0.06792 | 38069 ft | 484 kts | 274° |
| 2026-05-07 16:47 | 53.29625 | -0.04308 | 38047 ft | 485 kts | 278° |
| 2026-05-07 16:48 | 53.30713 | -0.15439 | 38052 ft | 485 kts | 277° |
| 2026-05-07 16:48 | 53.31884 | -0.26553 | 38058 ft | 485 kts | 278° |
| 2026-05-07 16:49 | 53.33003 | -0.37683 | 38056 ft | 485 kts | 277° |
| 2026-05-07 16:49 | 53.34129 | -0.48814 | 38054 ft | 485 kts | 278° |
| 2026-05-07 16:50 | 53.35249 | -0.59951 | 38058 ft | 485 kts | 277° |
| 2026-05-07 16:50 | 53.36350 | -0.71094 | 38054 ft | 485 kts | 277° |
| 2026-05-07 16:51 | 53.37446 | -0.82242 | 38044 ft | 485 kts | 277° |
| 2026-05-07 16:51 | 53.38526 | -0.93390 | 38042 ft | 485 kts | 277° |
| 2026-05-07 16:52 | 53.39594 | -1.04541 | 38044 ft | 485 kts | 277° |
| 2026-05-07 16:52 | 53.40655 | -1.15698 | 38037 ft | 485 kts | 277° |
| 2026-05-07 16:53 | 53.41707 | -1.26852 | 38031 ft | 484 kts | 277° |
| 2026-05-07 16:53 | 53.42737 | -1.38002 | 38035 ft | 484 kts | 277° |
| 2026-05-07 16:54 | 53.43771 | -1.49153 | 38016 ft | 484 kts | 277° |
| 2026-05-07 16:54 | 53.44775 | -1.60231 | 38018 ft | 483 kts | 277° |
| 2026-05-07 16:55 | 53.45787 | -1.71365 | 38020 ft | 482 kts | 276° |
| 2026-05-07 16:55 | 53.46779 | -1.82511 | 38013 ft | 483 kts | 276° |
| 2026-05-07 16:56 | 53.47764 | -1.93661 | 38009 ft | 483 kts | 276° |
| 2026-05-07 16:56 | 53.49218 | -2.10394 | 38009 ft | 482 kts | 276° |
| 2026-05-07 16:57 | 53.50172 | -2.21529 | 38014 ft | 481 kts | 276° |
| 2026-05-07 16:57 | 53.51115 | -2.32663 | 38008 ft | 482 kts | 276° |
| 2026-05-07 16:58 | 53.52052 | -2.43854 | 38012 ft | 484 kts | 276° |
| 2026-05-07 16:58 | 53.52980 | -2.55073 | 37995 ft | 484 kts | 276° |
| 2026-05-07 16:59 | 53.53896 | -2.66274 | 37994 ft | 482 kts | 275° |
| 2026-05-07 16:59 | 53.54797 | -2.77428 | 37987 ft | 481 kts | 275° |
| 2026-05-07 17:00 | 53.55538 | -2.86697 | 37990 ft | 481 kts | 275° |
| 2026-05-07 17:00 | 53.56420 | -2.97861 | 37994 ft | 482 kts | 275° |
| 2026-05-07 17:01 | 53.57294 | -3.09054 | 38002 ft | 483 kts | 275° |
| 2026-05-07 17:01 | 53.58157 | -3.20249 | 37999 ft | 481 kts | 275° |
| 2026-05-07 17:02 | 53.59007 | -3.31416 | 37991 ft | 480 kts | 275° |
| 2026-05-07 17:02 | 53.59844 | -3.42561 | 37986 ft | 479 kts | 275° |
| 2026-05-07 17:03 | 53.60671 | -3.53677 | 37984 ft | 480 kts | 275° |
| 2026-05-07 17:03 | 53.61482 | -3.64775 | 37995 ft | 481 kts | 275° |
| 2026-05-07 17:04 | 53.61980 | -3.75962 | 37987 ft | 479 kts | 272° |
| 2026-05-07 17:04 | 53.62467 | -3.87167 | 37990 ft | 480 kts | 272° |
| 2026-05-07 17:05 | 53.62900 | -3.98394 | 37992 ft | 480 kts | 271° |
| 2026-05-07 17:05 | 53.63363 | -4.09623 | 37991 ft | 481 kts | 272° |
| 2026-05-07 17:06 | 53.63788 | -4.20851 | 37983 ft | 479 kts | 271° |
| 2026-05-07 17:06 | 53.64201 | -4.32006 | 37976 ft | 476 kts | 271° |
| 2026-05-07 17:07 | 53.64621 | -4.43151 | 37990 ft | 476 kts | 271° |
| 2026-05-07 17:07 | 53.65021 | -4.54298 | 37982 ft | 477 kts | 271° |
| 2026-05-07 17:08 | 53.65408 | -4.65480 | 37987 ft | 478 kts | 271° |
| 2026-05-07 17:08 | 53.65789 | -4.76651 | 37978 ft | 476 kts | 271° |
| 2026-05-07 17:09 | 53.66152 | -4.87705 | 37967 ft | 475 kts | 271° |
| 2026-05-07 17:09 | 53.66510 | -4.98832 | 37967 ft | 475 kts | 271° |
| 2026-05-07 17:10 | 53.66856 | -5.09953 | 37964 ft | 475 kts | 270° |
| 2026-05-07 17:10 | 53.67191 | -5.21085 | 37968 ft | 476 kts | 270° |
| 2026-05-07 17:11 | 53.67510 | -5.32227 | 37962 ft | 474 kts | 270° |
| 2026-05-07 17:11 | 53.67820 | -5.43319 | 37958 ft | 473 kts | 270° |
| 2026-05-07 17:12 | 53.68292 | -5.54412 | 37977 ft | 475 kts | 275° |
| 2026-05-07 17:12 | 53.68975 | -5.65513 | 37965 ft | 476 kts | 273° |
| 2026-05-07 17:13 | 53.69657 | -5.76637 | 37967 ft | 477 kts | 274° |
| 2026-05-07 17:13 | 53.70343 | -5.87782 | 37949 ft | 477 kts | 273° |
| 2026-05-07 17:14 | 53.70999 | -5.98921 | 37953 ft | 477 kts | 273° |
| 2026-05-07 17:14 | 53.71661 | -6.10052 | 37942 ft | 476 kts | 273° |
| 2026-05-07 17:15 | 53.72300 | -6.21175 | 37943 ft | 476 kts | 273° |
| 2026-05-07 17:15 | 53.72932 | -6.32229 | 37927 ft | 474 kts | 273° |
| 2026-05-07 17:16 | 53.73550 | -6.43295 | 37921 ft | 473 kts | 273° |
| 2026-05-07 17:16 | 53.74159 | -6.54346 | 37912 ft | 472 kts | 273° |
| 2026-05-07 17:17 | 53.74757 | -6.65402 | 37919 ft | 473 kts | 272° |
| 2026-05-07 17:17 | 53.75346 | -6.76462 | 37913 ft | 473 kts | 272° |
| 2026-05-07 17:18 | 53.75923 | -6.87507 | 37926 ft | 471 kts | 272° |
| 2026-05-07 17:18 | 53.76488 | -6.98537 | 37920 ft | 471 kts | 272° |
| 2026-05-07 17:19 | 53.77044 | -7.09573 | 37921 ft | 472 kts | 272° |
| 2026-05-07 17:19 | 53.77591 | -7.20624 | 37920 ft | 472 kts | 272° |
| 2026-05-07 17:20 | 53.78127 | -7.31680 | 37917 ft | 471 kts | 272° |
| 2026-05-07 17:20 | 53.78651 | -7.42674 | 37917 ft | 468 kts | 272° |
| 2026-05-07 17:21 | 53.79162 | -7.53636 | 37912 ft | 467 kts | 272° |
| 2026-05-07 17:21 | 53.79664 | -7.64598 | 37912 ft | 468 kts | 272° |
| 2026-05-07 17:22 | 53.80155 | -7.75575 | 37917 ft | 468 kts | 272° |
| 2026-05-07 17:22 | 53.80637 | -7.86557 | 37918 ft | 468 kts | 272° |
| 2026-05-07 17:23 | 53.81110 | -7.97549 | 37918 ft | 468 kts | 272° |
| 2026-05-07 17:23 | 53.81568 | -8.08457 | 37912 ft | 468 kts | 272° |
| 2026-05-07 17:24 | 53.82020 | -8.19427 | 37917 ft | 467 kts | 272° |
| 2026-05-07 17:24 | 53.82460 | -8.30392 | 37916 ft | 467 kts | 272° |
| 2026-05-07 17:25 | 53.82891 | -8.41360 | 37910 ft | 468 kts | 272° |
| 2026-05-07 17:25 | 53.83314 | -8.52372 | 37922 ft | 469 kts | 272° |
| 2026-05-07 17:26 | 53.83726 | -8.63383 | 37911 ft | 469 kts | 271° |
| 2026-05-07 17:26 | 53.84129 | -8.74406 | 37919 ft | 469 kts | 271° |
| 2026-05-07 17:27 | 53.84521 | -8.85418 | 37913 ft | 468 kts | 271° |
| 2026-05-07 17:27 | 53.84900 | -8.96349 | 37911 ft | 468 kts | 271° |
| 2026-05-07 17:28 | 53.85271 | -9.07341 | 37914 ft | 467 kts | 271° |
| 2026-05-07 17:28 | 53.85632 | -9.18337 | 37915 ft | 468 kts | 271° |
| 2026-05-07 17:29 | 53.85983 | -9.29340 | 37918 ft | 468 kts | 271° |
| 2026-05-07 17:29 | 53.86325 | -9.40353 | 37921 ft | 468 kts | 271° |
| 2026-05-07 17:30 | 53.86656 | -9.51364 | 37928 ft | 468 kts | 271° |
| 2026-05-07 17:30 | 53.86978 | -9.62400 | 37926 ft | 469 kts | 270° |
| 2026-05-07 17:31 | 53.87289 | -9.73422 | 37933 ft | 468 kts | 270° |
| 2026-05-07 17:31 | 53.87590 | -9.84435 | 37933 ft | 467 kts | 270° |
| 2026-05-07 17:32 | 53.87880 | -9.95428 | 37934 ft | 467 kts | 270° |
| 2026-05-07 17:32 | 53.88114 | -10.04548 | 37942 ft | 467 kts | 270° |
| 2026-05-07 17:33 | 53.88431 | -10.17460 | 37936 ft | 471 kts | 270° |
| 2026-05-07 17:33 | 53.88692 | -10.28455 | 37937 ft | 470 kts | 270° |
| 2026-05-07 17:34 | 53.88943 | -10.39534 | 37945 ft | 470 kts | 270° |
| 2026-05-07 17:34 | 53.89338 | -10.50568 | 37933 ft | 470 kts | 272° |
| 2026-05-07 17:35 | 53.89800 | -10.61628 | 37942 ft | 471 kts | 271° |
| 2026-05-07 17:35 | 53.90256 | -10.72742 | 37941 ft | 471 kts | 271° |
| 2026-05-07 17:36 | 53.90704 | -10.83822 | 37941 ft | 470 kts | 271° |
| 2026-05-07 17:36 | 53.91135 | -10.94875 | 37936 ft | 469 kts | 271° |
| 2026-05-07 17:37 | 53.91559 | -11.05901 | 37933 ft | 468 kts | 271° |
| 2026-05-07 17:37 | 53.91970 | -11.16927 | 37935 ft | 468 kts | 271° |
| 2026-05-07 17:38 | 53.92374 | -11.27972 | 37937 ft | 470 kts | 271° |
| 2026-05-07 17:38 | 53.92768 | -11.39064 | 37945 ft | 472 kts | 271° |
| 2026-05-07 17:39 | 53.93153 | -11.50176 | 37947 ft | 471 kts | 271° |
| 2026-05-07 17:39 | 53.93526 | -11.61251 | 37944 ft | 470 kts | 271° |
| 2026-05-07 17:40 | 53.93887 | -11.72303 | 37937 ft | 468 kts | 271° |
| 2026-05-07 17:40 | 53.94240 | -11.83328 | 37939 ft | 468 kts | 271° |
| 2026-05-07 17:41 | 53.94580 | -11.94363 | 37945 ft | 469 kts | 271° |
| 2026-05-07 17:41 | 53.94912 | -12.05412 | 37946 ft | 469 kts | 270° |
| 2026-05-07 17:42 | 53.95233 | -12.16478 | 37964 ft | 469 kts | 270° |
| 2026-05-07 17:42 | 53.95545 | -12.27537 | 37951 ft | 468 kts | 270° |
| 2026-05-07 17:43 | 53.95845 | -12.38555 | 37940 ft | 466 kts | 270° |
| 2026-05-07 17:43 | 53.96135 | -12.49569 | 37952 ft | 468 kts | 270° |
| 2026-05-07 17:44 | 53.96416 | -12.60614 | 37961 ft | 469 kts | 270° |
| 2026-05-07 17:44 | 53.96684 | -12.71609 | 37961 ft | 470 kts | 270° |
| 2026-05-07 17:45 | 53.96945 | -12.82668 | 37947 ft | 469 kts | 270° |
| 2026-05-07 17:45 | 53.97196 | -12.93722 | 37949 ft | 468 kts | 270° |
| 2026-05-07 17:46 | 53.97435 | -13.04765 | 37947 ft | 467 kts | 270° |
| 2026-05-07 17:46 | 53.97664 | -13.15767 | 37953 ft | 466 kts | 270° |
| 2026-05-07 17:47 | 53.97883 | -13.26789 | 37964 ft | 467 kts | 270° |
| 2026-05-07 17:47 | 53.98093 | -13.37843 | 37966 ft | 469 kts | 270° |
| 2026-05-07 17:48 | 53.98293 | -13.48938 | 37973 ft | 470 kts | 270° |
| 2026-05-07 17:48 | 53.98483 | -13.60010 | 37974 ft | 469 kts | 270° |
| 2026-05-07 17:49 | 53.98662 | -13.71066 | 37967 ft | 468 kts | 270° |
| 2026-05-07 17:49 | 53.98803 | -13.80250 | 37984 ft | 468 kts | 270° |
| 2026-05-07 17:50 | 53.98964 | -13.91311 | 37976 ft | 468 kts | 270° |
| 2026-05-07 17:50 | 53.99114 | -14.02363 | 37980 ft | 468 kts | 270° |
| 2026-05-07 17:51 | 53.99254 | -14.13442 | 37984 ft | 469 kts | 270° |
| 2026-05-07 17:51 | 53.99385 | -14.24516 | 37988 ft | 469 kts | 270° |
| 2026-05-07 17:52 | 53.99505 | -14.35600 | 37988 ft | 469 kts | 270° |
| 2026-05-07 17:52 | 53.99615 | -14.46718 | 37990 ft | 471 kts | 270° |
| 2026-05-07 17:53 | 53.99715 | -14.57829 | 37986 ft | 469 kts | 270° |
| 2026-05-07 17:53 | 53.99805 | -14.68915 | 37984 ft | 468 kts | 269° |
| 2026-05-07 17:54 | 53.99884 | -14.79966 | 37985 ft | 467 kts | 269° |
| 2026-05-07 17:54 | 53.99953 | -14.91006 | 37992 ft | 468 kts | 269° |
| 2026-05-07 17:55 | 54.00037 | -15.02102 | 37999 ft | 470 kts | 271° |
| 2026-05-07 17:55 | 54.00275 | -15.13226 | 38006 ft | 471 kts | 270° |
| 2026-05-07 17:56 | 54.00477 | -15.24292 | 38006 ft | 472 kts | 271° |
| 2026-05-07 17:56 | 54.00688 | -15.35431 | 38006 ft | 472 kts | 270° |
| 2026-05-07 17:57 | 54.00846 | -15.44771 | 38006 ft | 471 kts | 271° |
| 2026-05-07 17:57 | 54.01063 | -15.57741 | 38007 ft | 473 kts | 271° |
| 2026-05-07 17:58 | 54.01235 | -15.68922 | 38008 ft | 473 kts | 271° |
| 2026-05-07 17:58 | 54.01398 | -15.80103 | 38012 ft | 473 kts | 270° |
| 2026-05-07 17:59 | 54.01550 | -15.91290 | 38018 ft | 473 kts | 270° |
| 2026-05-07 17:59 | 54.01692 | -16.02482 | 38019 ft | 473 kts | 270° |
| 2026-05-07 18:00 | 54.01825 | -16.13670 | 38020 ft | 473 kts | 270° |
| 2026-05-07 18:00 | 54.01946 | -16.24855 | 38020 ft | 473 kts | 270° |
| 2026-05-07 18:01 | 54.02057 | -16.36041 | 38020 ft | 473 kts | 270° |
| 2026-05-07 18:01 | 54.02157 | -16.47229 | 38026 ft | 473 kts | 270° |
| 2026-05-07 18:02 | 54.02289 | -16.63999 | 38025 ft | 473 kts | 270° |
| 2026-05-07 18:03 | 54.02363 | -16.75167 | 38030 ft | 472 kts | 270° |
| 2026-05-07 18:03 | 54.02427 | -16.86336 | 38029 ft | 472 kts | 270° |
| 2026-05-07 18:04 | 54.02481 | -16.97495 | 38031 ft | 472 kts | 270° |
| 2026-05-07 18:04 | 54.02525 | -17.08654 | 38030 ft | 472 kts | 270° |
| 2026-05-07 18:05 | 54.02558 | -17.19813 | 38030 ft | 472 kts | 270° |
| 2026-05-07 18:05 | 54.02580 | -17.30994 | 38037 ft | 473 kts | 270° |
| 2026-05-07 18:06 | 54.02593 | -17.42189 | 38042 ft | 474 kts | 270° |
| 2026-05-07 18:06 | 54.02595 | -17.53320 | 38050 ft | 474 kts | 270° |
| 2026-05-07 18:07 | 54.02587 | -17.64534 | 38046 ft | 474 kts | 270° |
| 2026-05-07 18:07 | 54.02568 | -17.75754 | 38053 ft | 475 kts | 270° |
| 2026-05-07 18:08 | 54.02539 | -17.86990 | 38056 ft | 475 kts | 269° |
| 2026-05-07 18:08 | 54.02499 | -17.98239 | 38057 ft | 476 kts | 269° |
| 2026-05-07 18:09 | 54.02449 | -18.09499 | 38055 ft | 476 kts | 269° |
| 2026-05-07 18:09 | 54.02388 | -18.20729 | 38054 ft | 474 kts | 269° |
| 2026-05-07 18:10 | 54.02317 | -18.31928 | 38048 ft | 473 kts | 269° |
| 2026-05-07 18:10 | 54.02236 | -18.43113 | 38054 ft | 473 kts | 269° |
| 2026-05-07 18:11 | 54.02144 | -18.54301 | 38057 ft | 473 kts | 269° |
| 2026-05-07 18:11 | 54.02042 | -18.65492 | 38058 ft | 474 kts | 269° |
| 2026-05-07 18:12 | 54.01929 | -18.76698 | 38053 ft | 474 kts | 269° |
| 2026-05-07 18:12 | 54.01806 | -18.87902 | 38071 ft | 475 kts | 269° |
| 2026-05-07 18:13 | 54.01673 | -18.99131 | 38081 ft | 476 kts | 269° |
| 2026-05-07 18:13 | 54.01528 | -19.10387 | 38080 ft | 476 kts | 269° |
| 2026-05-07 18:14 | 54.01373 | -19.21616 | 38079 ft | 475 kts | 269° |
| 2026-05-07 18:14 | 54.01208 | -19.32823 | 38077 ft | 474 kts | 269° |
| 2026-05-07 18:15 | 54.01033 | -19.44038 | 38077 ft | 475 kts | 269° |
| 2026-05-07 18:15 | 54.00847 | -19.55261 | 38078 ft | 475 kts | 269° |
| 2026-05-07 18:16 | 54.00650 | -19.66497 | 38081 ft | 476 kts | 269° |
| 2026-05-07 18:16 | 54.00443 | -19.77756 | 38091 ft | 477 kts | 269° |
| 2026-05-07 18:17 | 54.00224 | -19.89019 | 38090 ft | 476 kts | 269° |
| 2026-05-07 18:17 | 53.99990 | -20.00246 | 38092 ft | 475 kts | 268° |
| 2026-05-07 18:18 | 53.99322 | -20.11425 | 38106 ft | 476 kts | 266° |
| 2026-05-07 18:18 | 53.98718 | -20.22639 | 38110 ft | 477 kts | 265° |
| 2026-05-07 18:19 | 53.98031 | -20.33775 | 38110 ft | 477 kts | 265° |
| 2026-05-07 18:19 | 53.97377 | -20.45000 | 38102 ft | 478 kts | 265° |
| 2026-05-07 18:20 | 53.96684 | -20.56231 | 38105 ft | 479 kts | 265° |
| 2026-05-07 18:20 | 53.95992 | -20.67493 | 38113 ft | 479 kts | 265° |
| 2026-05-07 18:21 | 53.95288 | -20.78693 | 38111 ft | 478 kts | 265° |
| 2026-05-07 18:21 | 53.94575 | -20.89888 | 38105 ft | 476 kts | 265° |
| 2026-05-07 18:22 | 53.93851 | -21.01068 | 38117 ft | 477 kts | 265° |
| 2026-05-07 18:22 | 53.93117 | -21.12279 | 38119 ft | 479 kts | 265° |
| 2026-05-07 18:23 | 53.92369 | -21.23504 | 38124 ft | 479 kts | 265° |
| 2026-05-07 18:23 | 53.91611 | -21.34740 | 38131 ft | 479 kts | 265° |
| 2026-05-07 18:24 | 53.90842 | -21.45963 | 38132 ft | 479 kts | 265° |
| 2026-05-07 18:24 | 53.90064 | -21.57175 | 38124 ft | 478 kts | 265° |
| 2026-05-07 18:25 | 53.89276 | -21.68364 | 38121 ft | 477 kts | 265° |
| 2026-05-07 18:25 | 53.88480 | -21.79532 | 38116 ft | 477 kts | 265° |
| 2026-05-07 18:26 | 53.87674 | -21.90678 | 38124 ft | 476 kts | 265° |
| 2026-05-07 18:26 | 53.86863 | -22.01745 | 38126 ft | 477 kts | 265° |
| 2026-05-07 18:27 | 53.86035 | -22.12908 | 38136 ft | 478 kts | 265° |
| 2026-05-07 18:27 | 53.85193 | -22.24104 | 38137 ft | 479 kts | 265° |
| 2026-05-07 18:28 | 53.84340 | -22.35312 | 38146 ft | 480 kts | 265° |
| 2026-05-07 18:28 | 53.83476 | -22.46520 | 38143 ft | 479 kts | 264° |
| 2026-05-07 18:29 | 53.82605 | -22.57676 | 38131 ft | 478 kts | 265° |
| 2026-05-07 18:29 | 53.81724 | -22.68827 | 38137 ft | 477 kts | 265° |
| 2026-05-07 18:30 | 53.80835 | -22.79941 | 38146 ft | 477 kts | 264° |
| 2026-05-07 18:30 | 53.79934 | -22.91085 | 38146 ft | 479 kts | 264° |
| 2026-05-07 18:31 | 53.79019 | -23.02251 | 38147 ft | 480 kts | 264° |
| 2026-05-07 18:31 | 53.78098 | -23.13361 | 38161 ft | 481 kts | 264° |
| 2026-05-07 18:32 | 53.77161 | -23.24545 | 38162 ft | 479 kts | 264° |